sensor_id;sensor_type;location;lat;lon;timestamp;temperature;humidity
11599;DHT22;5855;48.840;9.188;2023-04-15T00:01:26;4.70;99.90
11599;DHT22;5855;48.840;9.188;2023-04-15T00:03:53;4.60;99.90
11599;DHT22;5855;48.840;9.188;2023-04-15T00:06:21;4.60;99.90
11599;DHT22;5855;48.840;9.188;2023-04-15T00:08:50;4.60;99.90
11599;DHT22;5855;48.840;9.188;2023-04-15T00:11:16;4.50;99.90
11599;DHT22;5855;48.840;9.188;2023-04-15T00:13:45;4.50;99.90
11599;DHT22;5855;48.840;9.188;2023-04-15T00:16:12;4.40;99.90
11599;DHT22;5855;48.840;9.188;2023-04-15T00:18:39;4.40;99.90
11599;DHT22;5855;48.840;9.188;2023-04-15T00:21:05;4.40;99.90
11599;DHT22;5855;48.840;9.188;2023-04-15T00:23:32;4.50;99.90
11599;DHT22;5855;48.840;9.188;2023-04-15T00:26:02;4.50;99.90
11599;DHT22;5855;48.840;9.188;2023-04-15T00:28:29;4.40;99.90
11599;DHT22;5855;48.840;9.188;2023-04-15T00:30:56;4.40;99.90
11599;DHT22;5855;48.840;9.188;2023-04-15T00:33:23;4.30;99.90
11599;DHT22;5855;48.840;9.188;2023-04-15T00:35:50;4.30;99.90
11599;DHT22;5855;48.840;9.188;2023-04-15T00:38:18;4.20;99.90
11599;DHT22;5855;48.840;9.188;2023-04-15T00:40:45;4.20;99.90
11599;DHT22;5855;48.840;9.188;2023-04-15T00:43:13;4.10;99.90
11599;DHT22;5855;48.840;9.188;2023-04-15T00:45:40;4.10;99.90
11599;DHT22;5855;48.840;9.188;2023-04-15T00:48:07;4.00;99.90
11599;DHT22;5855;48.840;9.188;2023-04-15T00:50:35;4.00;99.90
11599;DHT22;5855;48.840;9.188;2023-04-15T00:53:01;4.00;99.90
11599;DHT22;5855;48.840;9.188;2023-04-15T00:55:28;4.00;99.90
11599;DHT22;5855;48.840;9.188;2023-04-15T00:57:55;4.00;99.90
11599;DHT22;5855;48.840;9.188;2023-04-15T01:00:24;4.10;99.90
11599;DHT22;5855;48.840;9.188;2023-04-15T01:02:51;4.10;99.90
11599;DHT22;5855;48.840;9.188;2023-04-15T01:05:18;4.10;99.90
11599;DHT22;5855;48.840;9.188;2023-04-15T01:07:46;4.00;99.90
11599;DHT22;5855;48.840;9.188;2023-04-15T01:10:13;3.90;99.90
11599;DHT22;5855;48.840;9.188;2023-04-15T01:12:40;3.90;99.90
11599;DHT22;5855;48.840;9.188;2023-04-15T01:15:07;3.80;99.90
11599;DHT22;5855;48.840;9.188;2023-04-15T01:17:37;3.80;99.90
11599;DHT22;5855;48.840;9.188;2023-04-15T01:20:05;3.70;99.90
11599;DHT22;5855;48.840;9.188;2023-04-15T01:22:34;3.70;99.90
11599;DHT22;5855;48.840;9.188;2023-04-15T01:25:05;3.60;99.90
11599;DHT22;5855;48.840;9.188;2023-04-15T01:27:38;3.60;99.90
11599;DHT22;5855;48.840;9.188;2023-04-15T01:30:06;3.50;99.90
11599;DHT22;5855;48.840;9.188;2023-04-15T01:32:33;3.50;99.90
11599;DHT22;5855;48.840;9.188;2023-04-15T01:35:00;3.40;99.90
11599;DHT22;5855;48.840;9.188;2023-04-15T01:37:28;3.40;99.90
11599;DHT22;5855;48.840;9.188;2023-04-15T01:39:55;3.40;99.90
11599;DHT22;5855;48.840;9.188;2023-04-15T01:42:23;3.40;99.90
11599;DHT22;5855;48.840;9.188;2023-04-15T01:44:51;3.40;99.90
11599;DHT22;5855;48.840;9.188;2023-04-15T01:47:18;3.30;99.90
11599;DHT22;5855;48.840;9.188;2023-04-15T01:49:45;3.30;99.90
11599;DHT22;5855;48.840;9.188;2023-04-15T01:52:11;3.20;99.90
11599;DHT22;5855;48.840;9.188;2023-04-15T01:54:38;3.20;99.90
11599;DHT22;5855;48.840;9.188;2023-04-15T01:57:05;3.20;99.90
11599;DHT22;5855;48.840;9.188;2023-04-15T01:59:32;3.10;99.90
11599;DHT22;5855;48.840;9.188;2023-04-15T02:02:00;3.10;99.90
11599;DHT22;5855;48.840;9.188;2023-04-15T02:04:27;3.10;99.90
11599;DHT22;5855;48.840;9.188;2023-04-15T02:06:54;3.10;99.90
11599;DHT22;5855;48.840;9.188;2023-04-15T02:09:21;3.10;99.90
11599;DHT22;5855;48.840;9.188;2023-04-15T02:11:49;3.10;99.90
11599;DHT22;5855;48.840;9.188;2023-04-15T02:14:17;3.10;99.90
11599;DHT22;5855;48.840;9.188;2023-04-15T02:16:44;3.10;99.90
11599;DHT22;5855;48.840;9.188;2023-04-15T02:19:12;3.10;99.90
11599;DHT22;5855;48.840;9.188;2023-04-15T02:21:39;3.00;99.90
11599;DHT22;5855;48.840;9.188;2023-04-15T02:24:06;3.10;99.90
11599;DHT22;5855;48.840;9.188;2023-04-15T02:26:36;3.20;99.90
11599;DHT22;5855;48.840;9.188;2023-04-15T02:29:03;3.10;99.90
11599;DHT22;5855;48.840;9.188;2023-04-15T02:31:30;3.10;99.90
11599;DHT22;5855;48.840;9.188;2023-04-15T02:34:01;3.10;99.90
11599;DHT22;5855;48.840;9.188;2023-04-15T02:36:30;3.10;99.90
11599;DHT22;5855;48.840;9.188;2023-04-15T02:38:57;3.00;99.90
11599;DHT22;5855;48.840;9.188;2023-04-15T02:41:24;3.00;99.90
11599;DHT22;5855;48.840;9.188;2023-04-15T02:43:52;3.00;99.90
11599;DHT22;5855;48.840;9.188;2023-04-15T02:46:19;2.90;99.90
11599;DHT22;5855;48.840;9.188;2023-04-15T02:48:47;2.90;99.90
11599;DHT22;5855;48.840;9.188;2023-04-15T02:51:15;2.90;99.90
11599;DHT22;5855;48.840;9.188;2023-04-15T02:53:45;2.90;99.90
11599;DHT22;5855;48.840;9.188;2023-04-15T02:56:13;2.90;99.90
11599;DHT22;5855;48.840;9.188;2023-04-15T02:58:43;2.80;99.90
11599;DHT22;5855;48.840;9.188;2023-04-15T03:01:10;2.90;99.90
11599;DHT22;5855;48.840;9.188;2023-04-15T03:03:38;2.90;99.90
11599;DHT22;5855;48.840;9.188;2023-04-15T03:06:04;2.80;99.90
11599;DHT22;5855;48.840;9.188;2023-04-15T03:08:33;2.80;99.90
11599;DHT22;5855;48.840;9.188;2023-04-15T03:11:01;2.80;99.90
11599;DHT22;5855;48.840;9.188;2023-04-15T03:13:28;2.80;99.90
11599;DHT22;5855;48.840;9.188;2023-04-15T03:15:55;2.70;99.90
11599;DHT22;5855;48.840;9.188;2023-04-15T03:18:21;2.70;99.90
11599;DHT22;5855;48.840;9.188;2023-04-15T03:20:48;2.70;99.90
11599;DHT22;5855;48.840;9.188;2023-04-15T03:23:15;2.70;99.90
11599;DHT22;5855;48.840;9.188;2023-04-15T03:25:43;2.60;99.90
11599;DHT22;5855;48.840;9.188;2023-04-15T03:28:14;2.60;99.90
11599;DHT22;5855;48.840;9.188;2023-04-15T03:30:41;2.50;99.90
11599;DHT22;5855;48.840;9.188;2023-04-15T03:33:07;2.50;99.90
11599;DHT22;5855;48.840;9.188;2023-04-15T03:35:34;2.40;99.90
11599;DHT22;5855;48.840;9.188;2023-04-15T03:38:01;2.40;99.90
11599;DHT22;5855;48.840;9.188;2023-04-15T03:40:28;2.40;99.90
11599;DHT22;5855;48.840;9.188;2023-04-15T03:42:55;2.40;99.90
11599;DHT22;5855;48.840;9.188;2023-04-15T03:45:23;2.40;99.90
11599;DHT22;5855;48.840;9.188;2023-04-15T03:47:50;2.40;99.90
11599;DHT22;5855;48.840;9.188;2023-04-15T03:50:17;2.40;99.90
11599;DHT22;5855;48.840;9.188;2023-04-15T03:52:43;2.40;99.90
11599;DHT22;5855;48.840;9.188;2023-04-15T03:55:10;2.40;99.90
11599;DHT22;5855;48.840;9.188;2023-04-15T03:57:37;2.40;99.90
11599;DHT22;5855;48.840;9.188;2023-04-15T04:00:05;2.40;99.90
11599;DHT22;5855;48.840;9.188;2023-04-15T04:02:33;2.40;99.90
11599;DHT22;5855;48.840;9.188;2023-04-15T04:05:00;2.40;99.90
11599;DHT22;5855;48.840;9.188;2023-04-15T04:07:27;2.40;99.90
11599;DHT22;5855;48.840;9.188;2023-04-15T04:09:55;2.30;99.90
11599;DHT22;5855;48.840;9.188;2023-04-15T04:12:22;2.30;99.90
11599;DHT22;5855;48.840;9.188;2023-04-15T04:14:49;2.30;99.90
11599;DHT22;5855;48.840;9.188;2023-04-15T04:17:15;2.30;99.90
11599;DHT22;5855;48.840;9.188;2023-04-15T04:19:44;2.30;99.90
11599;DHT22;5855;48.840;9.188;2023-04-15T04:22:10;2.30;99.90
11599;DHT22;5855;48.840;9.188;2023-04-15T04:24:37;2.30;99.90
11599;DHT22;5855;48.840;9.188;2023-04-15T04:27:04;2.20;99.90
11599;DHT22;5855;48.840;9.188;2023-04-15T04:29:31;2.20;99.90
11599;DHT22;5855;48.840;9.188;2023-04-15T04:31:58;2.20;99.90
11599;DHT22;5855;48.840;9.188;2023-04-15T04:34:25;2.30;99.90
11599;DHT22;5855;48.840;9.188;2023-04-15T04:36:53;2.20;99.90
11599;DHT22;5855;48.840;9.188;2023-04-15T04:39:20;2.20;99.90
11599;DHT22;5855;48.840;9.188;2023-04-15T04:41:46;2.20;99.90
11599;DHT22;5855;48.840;9.188;2023-04-15T04:44:13;2.20;99.90
11599;DHT22;5855;48.840;9.188;2023-04-15T04:46:40;2.20;99.90
11599;DHT22;5855;48.840;9.188;2023-04-15T04:49:07;2.20;99.90
11599;DHT22;5855;48.840;9.188;2023-04-15T04:51:34;2.20;99.90
11599;DHT22;5855;48.840;9.188;2023-04-15T04:54:02;2.10;99.90
11599;DHT22;5855;48.840;9.188;2023-04-15T04:56:29;2.20;99.90
11599;DHT22;5855;48.840;9.188;2023-04-15T04:58:56;2.20;99.90
11599;DHT22;5855;48.840;9.188;2023-04-15T05:01:23;2.20;99.90
11599;DHT22;5855;48.840;9.188;2023-04-15T05:03:51;2.20;99.90
11599;DHT22;5855;48.840;9.188;2023-04-15T05:06:17;2.30;99.90
11599;DHT22;5855;48.840;9.188;2023-04-15T05:08:44;2.40;99.90
11599;DHT22;5855;48.840;9.188;2023-04-15T05:11:13;2.40;99.90
11599;DHT22;5855;48.840;9.188;2023-04-15T05:13:40;2.50;99.90
11599;DHT22;5855;48.840;9.188;2023-04-15T05:16:07;2.60;99.90
11599;DHT22;5855;48.840;9.188;2023-04-15T05:18:34;2.60;99.90
11599;DHT22;5855;48.840;9.188;2023-04-15T05:21:01;2.70;99.90
11599;DHT22;5855;48.840;9.188;2023-04-15T05:23:28;2.80;99.90
11599;DHT22;5855;48.840;9.188;2023-04-15T05:25:55;2.90;99.90
11599;DHT22;5855;48.840;9.188;2023-04-15T05:28:23;3.00;99.90
11599;DHT22;5855;48.840;9.188;2023-04-15T05:30:50;2.90;99.90
11599;DHT22;5855;48.840;9.188;2023-04-15T05:33:17;2.90;99.90
11599;DHT22;5855;48.840;9.188;2023-04-15T05:35:44;2.90;99.90
11599;DHT22;5855;48.840;9.188;2023-04-15T05:38:11;2.90;99.90
11599;DHT22;5855;48.840;9.188;2023-04-15T05:40:38;2.90;99.90
11599;DHT22;5855;48.840;9.188;2023-04-15T05:43:05;3.00;99.90
11599;DHT22;5855;48.840;9.188;2023-04-15T05:45:33;3.10;99.90
11599;DHT22;5855;48.840;9.188;2023-04-15T05:48:00;3.10;99.90
11599;DHT22;5855;48.840;9.188;2023-04-15T05:50:26;3.20;99.90
11599;DHT22;5855;48.840;9.188;2023-04-15T05:52:53;3.20;99.90
11599;DHT22;5855;48.840;9.188;2023-04-15T05:55:20;3.40;99.90
11599;DHT22;5855;48.840;9.188;2023-04-15T05:57:47;3.40;99.90
11599;DHT22;5855;48.840;9.188;2023-04-15T06:00:14;3.60;99.90
11599;DHT22;5855;48.840;9.188;2023-04-15T06:02:43;3.70;99.90
11599;DHT22;5855;48.840;9.188;2023-04-15T06:05:10;3.80;99.90
11599;DHT22;5855;48.840;9.188;2023-04-15T06:07:37;4.00;99.90
11599;DHT22;5855;48.840;9.188;2023-04-15T06:10:05;4.20;99.90
11599;DHT22;5855;48.840;9.188;2023-04-15T06:12:32;4.30;99.90
11599;DHT22;5855;48.840;9.188;2023-04-15T06:14:59;4.40;99.90
11599;DHT22;5855;48.840;9.188;2023-04-15T06:17:26;4.60;99.90
11599;DHT22;5855;48.840;9.188;2023-04-15T06:19:54;4.70;99.90
11599;DHT22;5855;48.840;9.188;2023-04-15T06:22:21;5.00;99.90
11599;DHT22;5855;48.840;9.188;2023-04-15T06:24:48;5.20;99.90
11599;DHT22;5855;48.840;9.188;2023-04-15T06:27:15;5.40;99.90
11599;DHT22;5855;48.840;9.188;2023-04-15T06:29:41;5.60;99.90
11599;DHT22;5855;48.840;9.188;2023-04-15T06:32:08;5.80;99.90
11599;DHT22;5855;48.840;9.188;2023-04-15T06:34:36;6.00;99.90
11599;DHT22;5855;48.840;9.188;2023-04-15T06:37:04;6.30;99.90
11599;DHT22;5855;48.840;9.188;2023-04-15T06:39:31;6.60;99.90
11599;DHT22;5855;48.840;9.188;2023-04-15T06:41:58;6.80;99.90
11599;DHT22;5855;48.840;9.188;2023-04-15T06:44:26;7.00;99.90
11599;DHT22;5855;48.840;9.188;2023-04-15T06:46:52;7.20;99.90
11599;DHT22;5855;48.840;9.188;2023-04-15T06:49:19;7.40;99.90
11599;DHT22;5855;48.840;9.188;2023-04-15T06:51:46;7.60;99.90
11599;DHT22;5855;48.840;9.188;2023-04-15T06:54:14;7.70;99.90
11599;DHT22;5855;48.840;9.188;2023-04-15T06:56:41;7.90;99.90
11599;DHT22;5855;48.840;9.188;2023-04-15T06:59:08;8.10;99.90
11599;DHT22;5855;48.840;9.188;2023-04-15T07:01:35;8.30;99.90
11599;DHT22;5855;48.840;9.188;2023-04-15T07:04:02;8.60;99.90
11599;DHT22;5855;48.840;9.188;2023-04-15T07:06:28;8.80;99.90
11599;DHT22;5855;48.840;9.188;2023-04-15T07:08:55;8.90;99.90
11599;DHT22;5855;48.840;9.188;2023-04-15T07:11:25;9.00;99.90
11599;DHT22;5855;48.840;9.188;2023-04-15T07:13:52;8.90;99.90
11599;DHT22;5855;48.840;9.188;2023-04-15T07:16:18;8.90;99.90
11599;DHT22;5855;48.840;9.188;2023-04-15T07:18:45;9.00;99.90
11599;DHT22;5855;48.840;9.188;2023-04-15T07:21:12;9.10;99.90
11599;DHT22;5855;48.840;9.188;2023-04-15T07:23:39;9.20;99.90
11599;DHT22;5855;48.840;9.188;2023-04-15T07:26:07;9.20;99.90
11599;DHT22;5855;48.840;9.188;2023-04-15T07:28:36;9.30;99.90
11599;DHT22;5855;48.840;9.188;2023-04-15T07:31:03;9.40;99.90
11599;DHT22;5855;48.840;9.188;2023-04-15T07:33:30;9.60;99.90
11599;DHT22;5855;48.840;9.188;2023-04-15T07:35:57;9.60;99.90
11599;DHT22;5855;48.840;9.188;2023-04-15T07:38:24;9.70;99.90
11599;DHT22;5855;48.840;9.188;2023-04-15T07:40:51;9.90;99.90
11599;DHT22;5855;48.840;9.188;2023-04-15T07:43:18;10.10;99.90
11599;DHT22;5855;48.840;9.188;2023-04-15T07:45:47;10.30;99.90
11599;DHT22;5855;48.840;9.188;2023-04-15T07:48:14;10.50;99.90
11599;DHT22;5855;48.840;9.188;2023-04-15T07:50:42;10.50;99.90
11599;DHT22;5855;48.840;9.188;2023-04-15T07:53:09;10.80;99.90
11599;DHT22;5855;48.840;9.188;2023-04-15T07:55:36;11.00;99.90
11599;DHT22;5855;48.840;9.188;2023-04-15T07:58:04;11.20;99.90
11599;DHT22;5855;48.840;9.188;2023-04-15T08:00:31;11.40;99.90
11599;DHT22;5855;48.840;9.188;2023-04-15T08:02:59;11.70;99.90
11599;DHT22;5855;48.840;9.188;2023-04-15T08:05:26;12.00;99.90
11599;DHT22;5855;48.840;9.188;2023-04-15T08:07:53;12.30;99.90
11599;DHT22;5855;48.840;9.188;2023-04-15T08:10:20;12.60;99.90
11599;DHT22;5855;48.840;9.188;2023-04-15T08:12:47;12.80;99.90
11599;DHT22;5855;48.840;9.188;2023-04-15T08:15:15;13.20;99.90
11599;DHT22;5855;48.840;9.188;2023-04-15T08:17:42;13.50;99.90
11599;DHT22;5855;48.840;9.188;2023-04-15T08:20:11;13.50;99.90
11599;DHT22;5855;48.840;9.188;2023-04-15T08:22:38;13.10;99.90
11599;DHT22;5855;48.840;9.188;2023-04-15T08:25:06;13.30;99.90
11599;DHT22;5855;48.840;9.188;2023-04-15T08:27:34;13.40;99.90
11599;DHT22;5855;48.840;9.188;2023-04-15T08:30:01;13.30;99.90
11599;DHT22;5855;48.840;9.188;2023-04-15T08:32:28;13.50;99.90
11599;DHT22;5855;48.840;9.188;2023-04-15T08:34:55;13.60;99.90
11599;DHT22;5855;48.840;9.188;2023-04-15T08:37:23;14.00;99.90
11599;DHT22;5855;48.840;9.188;2023-04-15T08:39:51;14.40;99.90
11599;DHT22;5855;48.840;9.188;2023-04-15T08:42:22;14.80;99.90
11599;DHT22;5855;48.840;9.188;2023-04-15T08:44:54;15.10;99.90
11599;DHT22;5855;48.840;9.188;2023-04-15T08:47:23;15.50;99.80
11599;DHT22;5855;48.840;9.188;2023-04-15T08:49:54;15.70;99.10
11599;DHT22;5855;48.840;9.188;2023-04-15T08:52:25;16.00;99.20
11599;DHT22;5855;48.840;9.188;2023-04-15T08:54:53;16.20;99.40
11599;DHT22;5855;48.840;9.188;2023-04-15T08:57:25;16.50;98.30
11599;DHT22;5855;48.840;9.188;2023-04-15T08:59:52;16.70;97.80
11599;DHT22;5855;48.840;9.188;2023-04-15T09:02:19;16.70;96.60
11599;DHT22;5855;48.840;9.188;2023-04-15T09:04:46;16.70;96.20
11599;DHT22;5855;48.840;9.188;2023-04-15T09:07:13;16.80;96.70
11599;DHT22;5855;48.840;9.188;2023-04-15T09:09:42;17.00;96.70
11599;DHT22;5855;48.840;9.188;2023-04-15T09:12:09;17.20;95.50
11599;DHT22;5855;48.840;9.188;2023-04-15T09:14:38;17.30;94.90
11599;DHT22;5855;48.840;9.188;2023-04-15T09:17:09;17.40;94.00
11599;DHT22;5855;48.840;9.188;2023-04-15T09:19:36;17.30;95.60
11599;DHT22;5855;48.840;9.188;2023-04-15T09:22:03;17.50;94.00
11599;DHT22;5855;48.840;9.188;2023-04-15T09:24:35;17.50;93.80
11599;DHT22;5855;48.840;9.188;2023-04-15T09:27:05;17.40;94.30
11599;DHT22;5855;48.840;9.188;2023-04-15T09:29:32;17.50;93.40
11599;DHT22;5855;48.840;9.188;2023-04-15T09:32:09;17.40;92.40
11599;DHT22;5855;48.840;9.188;2023-04-15T09:34:36;17.60;91.70
11599;DHT22;5855;48.840;9.188;2023-04-15T09:37:03;17.90;91.60
11599;DHT22;5855;48.840;9.188;2023-04-15T09:39:45;18.20;89.00
11599;DHT22;5855;48.840;9.188;2023-04-15T09:42:14;18.20;87.40
11599;DHT22;5855;48.840;9.188;2023-04-15T09:44:42;18.00;87.10
11599;DHT22;5855;48.840;9.188;2023-04-15T09:47:09;17.90;86.20
11599;DHT22;5855;48.840;9.188;2023-04-15T09:49:54;17.70;87.70
11599;DHT22;5855;48.840;9.188;2023-04-15T09:52:22;17.40;89.20
11599;DHT22;5855;48.840;9.188;2023-04-15T09:54:52;17.20;90.20
11599;DHT22;5855;48.840;9.188;2023-04-15T09:57:20;17.20;90.50
11599;DHT22;5855;48.840;9.188;2023-04-15T09:59:48;17.40;90.20
11599;DHT22;5855;48.840;9.188;2023-04-15T10:02:15;17.80;89.00
11599;DHT22;5855;48.840;9.188;2023-04-15T10:04:44;18.20;86.40
11599;DHT22;5855;48.840;9.188;2023-04-15T10:07:14;18.30;87.40
11599;DHT22;5855;48.840;9.188;2023-04-15T10:09:43;18.40;86.50
11599;DHT22;5855;48.840;9.188;2023-04-15T10:12:11;18.30;86.30
11599;DHT22;5855;48.840;9.188;2023-04-15T10:14:41;18.00;86.30
11599;DHT22;5855;48.840;9.188;2023-04-15T10:17:10;18.20;86.80
11599;DHT22;5855;48.840;9.188;2023-04-15T10:19:38;18.10;88.60
11599;DHT22;5855;48.840;9.188;2023-04-15T10:22:05;18.30;87.00
11599;DHT22;5855;48.840;9.188;2023-04-15T10:24:32;18.80;86.80
11599;DHT22;5855;48.840;9.188;2023-04-15T10:26:59;19.20;85.00
11599;DHT22;5855;48.840;9.188;2023-04-15T10:29:28;19.20;83.30
11599;DHT22;5855;48.840;9.188;2023-04-15T10:31:58;19.60;80.70
11599;DHT22;5855;48.840;9.188;2023-04-15T10:34:26;19.70;78.60
11599;DHT22;5855;48.840;9.188;2023-04-15T10:36:54;19.70;80.60
11599;DHT22;5855;48.840;9.188;2023-04-15T10:39:42;19.70;79.60
11599;DHT22;5855;48.840;9.188;2023-04-15T10:42:10;20.00;75.70
11599;DHT22;5855;48.840;9.188;2023-04-15T10:44:37;19.70;74.70
11599;DHT22;5855;48.840;9.188;2023-04-15T10:47:09;19.70;73.50
11599;DHT22;5855;48.840;9.188;2023-04-15T10:49:43;19.80;75.60
11599;DHT22;5855;48.840;9.188;2023-04-15T10:52:11;20.00;73.50
11599;DHT22;5855;48.840;9.188;2023-04-15T10:54:38;20.30;74.50
11599;DHT22;5855;48.840;9.188;2023-04-15T10:57:13;20.70;74.70
11599;DHT22;5855;48.840;9.188;2023-04-15T10:59:58;20.90;73.30
11599;DHT22;5855;48.840;9.188;2023-04-15T11:02:39;21.10;71.30
11599;DHT22;5855;48.840;9.188;2023-04-15T11:05:07;21.40;69.80
11599;DHT22;5855;48.840;9.188;2023-04-15T11:07:35;21.70;67.20
11599;DHT22;5855;48.840;9.188;2023-04-15T11:10:02;22.00;67.20
11599;DHT22;5855;48.840;9.188;2023-04-15T11:12:33;22.40;65.90
11599;DHT22;5855;48.840;9.188;2023-04-15T11:15:26;22.90;66.00
11599;DHT22;5855;48.840;9.188;2023-04-15T11:17:54;23.10;64.90
11599;DHT22;5855;48.840;9.188;2023-04-15T11:20:22;23.10;62.90
11599;DHT22;5855;48.840;9.188;2023-04-15T11:22:50;23.10;64.00
11599;DHT22;5855;48.840;9.188;2023-04-15T11:25:23;22.70;62.60
11599;DHT22;5855;48.840;9.188;2023-04-15T11:27:51;22.80;62.90
11599;DHT22;5855;48.840;9.188;2023-04-15T11:30:20;22.70;60.60
11599;DHT22;5855;48.840;9.188;2023-04-15T11:32:48;22.40;60.20
11599;DHT22;5855;48.840;9.188;2023-04-15T11:35:17;21.80;59.50
11599;DHT22;5855;48.840;9.188;2023-04-15T11:37:45;20.80;59.30
11599;DHT22;5855;48.840;9.188;2023-04-15T11:40:13;20.10;63.00
11599;DHT22;5855;48.840;9.188;2023-04-15T11:42:42;19.30;67.70
11599;DHT22;5855;48.840;9.188;2023-04-15T11:45:10;18.70;69.30
11599;DHT22;5855;48.840;9.188;2023-04-15T11:47:37;18.20;74.00
11599;DHT22;5855;48.840;9.188;2023-04-15T11:50:15;18.10;74.70
11599;DHT22;5855;48.840;9.188;2023-04-15T11:52:52;18.10;74.90
11599;DHT22;5855;48.840;9.188;2023-04-15T11:55:19;18.60;74.40
11599;DHT22;5855;48.840;9.188;2023-04-15T11:57:46;18.90;72.70
11599;DHT22;5855;48.840;9.188;2023-04-15T12:00:13;19.30;72.40
11599;DHT22;5855;48.840;9.188;2023-04-15T12:02:41;19.70;71.50
11599;DHT22;5855;48.840;9.188;2023-04-15T12:05:08;19.80;70.00
11599;DHT22;5855;48.840;9.188;2023-04-15T12:07:58;19.80;69.10
11599;DHT22;5855;48.840;9.188;2023-04-15T12:10:25;19.70;69.20
11599;DHT22;5855;48.840;9.188;2023-04-15T12:12:52;19.70;68.30
11599;DHT22;5855;48.840;9.188;2023-04-15T12:15:21;19.20;69.50
11599;DHT22;5855;48.840;9.188;2023-04-15T12:17:48;19.00;70.00
11599;DHT22;5855;48.840;9.188;2023-04-15T12:20:20;18.60;71.00
11599;DHT22;5855;48.840;9.188;2023-04-15T12:22:50;18.40;71.40
11599;DHT22;5855;48.840;9.188;2023-04-15T12:25:33;17.80;76.10
11599;DHT22;5855;48.840;9.188;2023-04-15T12:28:00;16.60;92.60
11599;DHT22;5855;48.840;9.188;2023-04-15T12:30:26;15.20;99.90
11599;DHT22;5855;48.840;9.188;2023-04-15T12:32:53;14.30;99.90
11599;DHT22;5855;48.840;9.188;2023-04-15T12:35:21;13.70;99.90
11599;DHT22;5855;48.840;9.188;2023-04-15T12:37:47;13.00;99.90
11599;DHT22;5855;48.840;9.188;2023-04-15T12:40:18;12.40;99.90
11599;DHT22;5855;48.840;9.188;2023-04-15T12:42:45;12.30;99.90
11599;DHT22;5855;48.840;9.188;2023-04-15T12:45:13;12.20;99.90
11599;DHT22;5855;48.840;9.188;2023-04-15T12:47:39;12.40;99.90
11599;DHT22;5855;48.840;9.188;2023-04-15T12:50:07;12.50;99.90
11599;DHT22;5855;48.840;9.188;2023-04-15T12:52:34;12.70;99.90
11599;DHT22;5855;48.840;9.188;2023-04-15T12:55:00;13.00;99.90
11599;DHT22;5855;48.840;9.188;2023-04-15T12:57:28;13.30;99.90
11599;DHT22;5855;48.840;9.188;2023-04-15T12:59:55;13.50;99.90
11599;DHT22;5855;48.840;9.188;2023-04-15T13:02:22;13.80;99.90
11599;DHT22;5855;48.840;9.188;2023-04-15T13:04:49;14.00;99.90
11599;DHT22;5855;48.840;9.188;2023-04-15T13:07:16;14.00;99.90
11599;DHT22;5855;48.840;9.188;2023-04-15T13:09:43;14.30;99.90
11599;DHT22;5855;48.840;9.188;2023-04-15T13:12:11;14.30;99.90
11599;DHT22;5855;48.840;9.188;2023-04-15T13:14:40;14.50;99.90
11599;DHT22;5855;48.840;9.188;2023-04-15T13:17:07;14.60;99.90
11599;DHT22;5855;48.840;9.188;2023-04-15T13:19:34;14.70;99.90
11599;DHT22;5855;48.840;9.188;2023-04-15T13:22:01;14.60;99.90
11599;DHT22;5855;48.840;9.188;2023-04-15T13:24:28;14.70;99.90
11599;DHT22;5855;48.840;9.188;2023-04-15T13:26:55;14.50;99.90
11599;DHT22;5855;48.840;9.188;2023-04-15T13:29:23;14.50;99.90
11599;DHT22;5855;48.840;9.188;2023-04-15T13:31:51;14.60;99.90
11599;DHT22;5855;48.840;9.188;2023-04-15T13:34:18;14.70;99.90
11599;DHT22;5855;48.840;9.188;2023-04-15T13:36:46;14.90;99.90
11599;DHT22;5855;48.840;9.188;2023-04-15T13:39:12;15.10;99.60
11599;DHT22;5855;48.840;9.188;2023-04-15T13:41:39;15.20;96.40
11599;DHT22;5855;48.840;9.188;2023-04-15T13:44:06;15.30;95.90
11599;DHT22;5855;48.840;9.188;2023-04-15T13:46:33;15.30;97.00
11599;DHT22;5855;48.840;9.188;2023-04-15T13:49:01;15.50;95.20
11599;DHT22;5855;48.840;9.188;2023-04-15T13:51:28;15.60;94.10
11599;DHT22;5855;48.840;9.188;2023-04-15T13:53:55;15.60;92.00
11599;DHT22;5855;48.840;9.188;2023-04-15T13:56:22;15.50;93.80
11599;DHT22;5855;48.840;9.188;2023-04-15T13:58:51;15.20;93.50
11599;DHT22;5855;48.840;9.188;2023-04-15T14:01:19;14.90;94.50
11599;DHT22;5855;48.840;9.188;2023-04-15T14:03:46;14.60;95.00
11599;DHT22;5855;48.840;9.188;2023-04-15T14:06:14;14.40;95.10
11599;DHT22;5855;48.840;9.188;2023-04-15T14:08:41;14.10;95.40
11599;DHT22;5855;48.840;9.188;2023-04-15T14:11:07;13.80;96.30
11599;DHT22;5855;48.840;9.188;2023-04-15T14:13:35;13.70;95.80
11599;DHT22;5855;48.840;9.188;2023-04-15T14:16:01;13.40;97.20
11599;DHT22;5855;48.840;9.188;2023-04-15T14:18:28;13.40;95.40
11599;DHT22;5855;48.840;9.188;2023-04-15T14:20:55;13.40;94.80
11599;DHT22;5855;48.840;9.188;2023-04-15T14:23:23;13.30;94.50
11599;DHT22;5855;48.840;9.188;2023-04-15T14:25:50;13.30;95.40
11599;DHT22;5855;48.840;9.188;2023-04-15T14:28:17;13.30;95.00
11599;DHT22;5855;48.840;9.188;2023-04-15T14:30:44;13.30;94.10
11599;DHT22;5855;48.840;9.188;2023-04-15T14:33:11;13.20;96.10
11599;DHT22;5855;48.840;9.188;2023-04-15T14:35:38;13.20;95.90
11599;DHT22;5855;48.840;9.188;2023-04-15T14:38:05;13.10;95.90
11599;DHT22;5855;48.840;9.188;2023-04-15T14:40:36;13.00;96.20
11599;DHT22;5855;48.840;9.188;2023-04-15T14:43:03;12.90;96.80
11599;DHT22;5855;48.840;9.188;2023-04-15T14:45:30;12.80;96.30
11599;DHT22;5855;48.840;9.188;2023-04-15T14:47:57;12.70;97.50
11599;DHT22;5855;48.840;9.188;2023-04-15T14:50:24;12.40;97.30
11599;DHT22;5855;48.840;9.188;2023-04-15T14:52:51;12.30;97.90
11599;DHT22;5855;48.840;9.188;2023-04-15T14:55:17;12.20;98.10
11599;DHT22;5855;48.840;9.188;2023-04-15T14:57:46;12.10;97.90
11599;DHT22;5855;48.840;9.188;2023-04-15T15:00:14;11.90;98.40
11599;DHT22;5855;48.840;9.188;2023-04-15T15:02:41;11.80;99.00
11599;DHT22;5855;48.840;9.188;2023-04-15T15:05:09;11.70;99.50
11599;DHT22;5855;48.840;9.188;2023-04-15T15:07:36;11.70;99.90
11599;DHT22;5855;48.840;9.188;2023-04-15T15:10:04;11.60;99.90
11599;DHT22;5855;48.840;9.188;2023-04-15T15:12:31;11.50;99.90
11599;DHT22;5855;48.840;9.188;2023-04-15T15:15:01;11.40;99.90
11599;DHT22;5855;48.840;9.188;2023-04-15T15:17:28;11.30;99.90
11599;DHT22;5855;48.840;9.188;2023-04-15T15:19:55;11.20;99.90
11599;DHT22;5855;48.840;9.188;2023-04-15T15:22:22;11.20;99.90
11599;DHT22;5855;48.840;9.188;2023-04-15T15:24:50;11.30;99.90
11599;DHT22;5855;48.840;9.188;2023-04-15T15:27:17;11.20;99.90
11599;DHT22;5855;48.840;9.188;2023-04-15T15:29:44;11.10;99.90
11599;DHT22;5855;48.840;9.188;2023-04-15T15:32:12;11.10;99.90
11599;DHT22;5855;48.840;9.188;2023-04-15T15:34:39;11.10;99.90
11599;DHT22;5855;48.840;9.188;2023-04-15T15:37:06;11.10;99.90
11599;DHT22;5855;48.840;9.188;2023-04-15T15:39:34;11.10;99.90
11599;DHT22;5855;48.840;9.188;2023-04-15T15:42:01;11.10;99.90
11599;DHT22;5855;48.840;9.188;2023-04-15T15:44:28;11.10;99.90
11599;DHT22;5855;48.840;9.188;2023-04-15T15:46:55;11.10;99.90
11599;DHT22;5855;48.840;9.188;2023-04-15T15:49:23;11.20;99.90
11599;DHT22;5855;48.840;9.188;2023-04-15T15:51:52;11.30;99.90
11599;DHT22;5855;48.840;9.188;2023-04-15T15:54:20;11.30;99.90
11599;DHT22;5855;48.840;9.188;2023-04-15T15:56:47;11.30;99.90
11599;DHT22;5855;48.840;9.188;2023-04-15T15:59:14;11.30;99.90